createdAt,value
2022-10-17T00:02:15.448Z,19.70
2022-10-17T00:04:45.561Z,14.18
2022-10-17T00:07:15.395Z,11.27
2022-10-17T00:09:48.104Z,10.05
2022-10-17T00:12:17.966Z,8.57
2022-10-17T00:14:48.204Z,6.10
2022-10-17T00:17:18.046Z,5.50
2022-10-17T00:19:48.195Z,9.48
2022-10-17T00:22:18.083Z,8.05
2022-10-17T00:24:50.786Z,8.68
2022-10-17T00:27:20.646Z,11.85
2022-10-17T00:29:51.737Z,12.40
2022-10-17T00:32:22.465Z,11.65
2022-10-17T00:34:52.503Z,9.05
2022-10-17T00:37:22.239Z,11.73
2022-10-17T00:39:54.969Z,9.48
2022-10-17T00:42:25.296Z,10.52
2022-10-17T00:45:10.623Z,11.18
2022-10-17T00:47:40.616Z,10.05
2022-10-17T00:50:12.438Z,13.52
2022-10-17T00:52:43.663Z,7.18
2022-10-17T00:55:21.077Z,15.80
2022-10-17T00:57:52.367Z,9.35
2022-10-17T01:00:22.768Z,8.23
2022-10-17T01:02:52.662Z,11.68
2022-10-17T01:05:23.414Z,7.97
2022-10-17T01:07:55.974Z,8.10
2022-10-17T01:10:34.683Z,7.35
2022-10-17T01:13:15.796Z,4.95
2022-10-17T01:15:55.584Z,6.28
2022-10-17T01:18:35.370Z,7.40
2022-10-17T01:21:37.262Z,5.70
2022-10-17T01:24:39.728Z,8.32
2022-10-17T01:27:38.943Z,5.78
2022-10-17T01:30:39.962Z,5.03
2022-10-17T01:33:17.365Z,7.82
2022-10-17T01:35:55.875Z,8.95
2022-10-17T01:38:30.266Z,6.80
2022-10-17T01:41:05.914Z,6.10
2022-10-17T01:43:43.489Z,7.13
2022-10-17T01:46:18.096Z,8.73
2022-10-17T01:48:50.848Z,4.47
2022-10-17T01:51:25.816Z,7.55
2022-10-17T01:53:59.725Z,6.72
2022-10-17T01:56:32.857Z,5.57
2022-10-17T01:59:07.640Z,5.32
2022-10-17T02:01:41.007Z,6.40
2022-10-17T02:04:16.456Z,5.65
2022-10-17T02:06:46.281Z,5.78
2022-10-17T02:09:25.108Z,9.57
2022-10-17T02:12:23.638Z,6.38
2022-10-17T02:15:08.121Z,6.85
2022-10-17T02:17:51.219Z,8.32
2022-10-17T02:20:30.898Z,4.72
2022-10-17T02:23:06.116Z,6.47
2022-10-17T02:25:41.638Z,6.82
2022-10-17T02:28:22.451Z,6.18
2022-10-17T02:30:56.924Z,3.97
2022-10-17T02:33:31.193Z,5.47
2022-10-17T02:36:08.873Z,14.27
2022-10-17T02:38:38.724Z,4.88
2022-10-17T02:41:13.209Z,11.80
2022-10-17T02:43:45.384Z,5.70
2022-10-17T02:46:21.287Z,6.63
2022-10-17T02:48:54.748Z,6.68
2022-10-17T02:51:35.449Z,7.53
2022-10-17T02:54:12.246Z,5.95
2022-10-17T02:56:46.726Z,11.93
2022-10-17T02:59:20.201Z,6.35
2022-10-17T03:01:51.942Z,11.23
2022-10-17T03:04:22.177Z,8.23
2022-10-17T03:06:54.977Z,5.80
2022-10-17T03:09:24.806Z,5.78
2022-10-17T03:11:55.053Z,9.38
2022-10-17T03:14:25.133Z,8.88
2022-10-17T03:16:55.567Z,7.72
2022-10-17T03:19:26.019Z,11.27
2022-10-17T03:21:58.962Z,12.60
2022-10-17T03:24:29.136Z,10.20
2022-10-17T03:26:59.744Z,6.80
2022-10-17T03:29:29.865Z,8.07
2022-10-17T03:31:59.837Z,6.65
2022-10-17T03:34:29.569Z,6.27
2022-10-17T03:37:02.164Z,6.45
2022-10-17T03:39:31.968Z,10.23
2022-10-17T03:42:02.102Z,6.20
2022-10-17T03:44:31.911Z,6.10
2022-10-17T03:47:02.292Z,7.45
2022-10-17T03:49:32.097Z,6.63
2022-10-17T03:52:04.852Z,11.93
2022-10-17T03:54:34.639Z,9.98
2022-10-17T03:57:04.785Z,8.02
2022-10-17T03:59:34.780Z,6.80
2022-10-17T04:02:04.828Z,10.20
2022-10-17T04:04:34.605Z,7.57
2022-10-17T04:07:07.410Z,9.65
2022-10-17T04:09:37.112Z,12.40
2022-10-17T04:12:07.614Z,12.32
2022-10-17T04:14:37.389Z,14.73
2022-10-17T04:17:07.497Z,15.25
2022-10-17T04:19:37.494Z,14.38
2022-10-17T04:22:10.282Z,9.77
2022-10-17T04:24:40.278Z,9.20
2022-10-17T04:27:10.379Z,6.32
2022-10-17T04:29:40.466Z,11.35
2022-10-17T04:32:11.021Z,6.65
2022-10-17T04:34:40.723Z,10.60
2022-10-17T04:37:13.382Z,8.75
2022-10-17T04:39:43.107Z,12.15
2022-10-17T04:42:13.189Z,10.80
2022-10-17T04:44:42.957Z,10.95
2022-10-17T04:47:12.970Z,14.00
2022-10-17T04:49:42.767Z,7.63
2022-10-17T04:52:15.437Z,13.32
2022-10-17T04:54:45.269Z,33.10
2022-10-17T04:57:15.342Z,13.07
2022-10-17T04:59:45.416Z,13.95
2022-10-17T05:02:15.505Z,15.27
2022-10-17T05:04:45.281Z,12.73
2022-10-17T05:07:18.007Z,17.30
2022-10-17T05:09:47.869Z,14.07
2022-10-17T05:12:17.955Z,15.50
2022-10-17T05:14:47.795Z,11.35
2022-10-17T05:17:17.892Z,18.83
2022-10-17T05:19:47.613Z,18.15
2022-10-17T05:22:20.328Z,18.77
2022-10-17T05:24:50.535Z,17.52
2022-10-17T05:27:20.931Z,11.02
2022-10-17T05:29:51.024Z,17.95
2022-10-17T05:32:23.589Z,11.77
2022-10-17T05:34:53.635Z,13.50
2022-10-17T05:37:26.555Z,12.73
2022-10-17T05:39:56.272Z,14.55
2022-10-17T05:42:26.693Z,14.10
2022-10-17T05:44:56.597Z,17.73
2022-10-17T05:47:26.851Z,10.82
2022-10-17T05:49:56.744Z,13.57
2022-10-17T05:52:30.579Z,16.90
2022-10-17T05:55:03.416Z,11.57
2022-10-17T05:57:33.567Z,15.30
2022-10-17T06:00:06.833Z,12.45
2022-10-17T06:02:37.087Z,14.65
2022-10-17T06:05:07.399Z,11.30
2022-10-17T06:07:44.802Z,8.57
2022-10-17T06:10:16.556Z,8.55
2022-10-17T06:12:47.345Z,9.05
2022-10-17T06:15:17.399Z,11.75
2022-10-17T06:18:06.544Z,6.63
2022-10-17T06:20:43.895Z,10.52
2022-10-17T06:23:25.273Z,9.38
2022-10-17T06:25:55.243Z,9.00
2022-10-17T06:28:28.039Z,7.18
2022-10-17T06:30:57.997Z,14.70
2022-10-17T06:33:31.528Z,13.40
2022-10-17T06:36:01.752Z,11.07
2022-10-17T06:38:34.949Z,8.88
2022-10-17T06:41:09.100Z,7.70
2022-10-17T06:43:40.433Z,10.82
2022-10-17T06:46:10.801Z,8.93
2022-10-17T06:48:46.154Z,12.32
2022-10-17T06:51:16.155Z,11.27
2022-10-17T06:53:49.373Z,14.23
2022-10-17T06:56:21.875Z,9.57
2022-10-17T06:58:53.002Z,8.50
2022-10-17T07:01:23.061Z,14.73
2022-10-17T07:03:53.255Z,14.98
2022-10-17T07:06:24.397Z,12.00
2022-10-17T07:13:02.126Z,8.60
2022-10-17T07:15:36.797Z,9.95
2022-10-17T07:18:11.753Z,8.73
2022-10-17T07:21:22.025Z,10.48
2022-10-17T07:24:07.771Z,10.25
2022-10-17T07:26:56.828Z,13.45
2022-10-17T07:29:56.341Z,7.40
2022-10-17T07:32:39.721Z,10.90
2022-10-17T07:35:19.845Z,12.75
2022-10-17T07:41:57.649Z,15.30
2022-10-17T07:44:58.923Z,26.52
2022-10-17T07:47:52.928Z,8.27
2022-10-17T07:51:17.588Z,12.10
2022-10-17T07:54:21.670Z,12.43
2022-10-17T07:56:57.939Z,9.45
2022-10-17T07:59:44.447Z,7.13
2022-10-17T08:02:36.032Z,7.78
2022-10-17T08:05:29.137Z,10.35
2022-10-17T08:08:12.568Z,11.68
2022-10-17T08:10:42.968Z,16.45
2022-10-17T08:13:12.732Z,11.98
2022-10-17T08:15:42.743Z,9.80
2022-10-17T08:18:15.075Z,14.10
2022-10-17T08:24:20.394Z,6.72
2022-10-17T08:30:47.031Z,5.03
2022-10-17T08:33:19.854Z,11.52
2022-10-17T08:35:49.548Z,7.68
2022-10-17T08:38:21.100Z,7.38
2022-10-17T08:40:55.065Z,5.22
2022-10-17T08:43:42.130Z,9.90
2022-10-17T08:46:12.534Z,10.93
2022-10-17T08:48:47.588Z,7.97
2022-10-17T08:51:21.691Z,8.65
2022-10-17T08:54:00.607Z,6.65
2022-10-17T08:56:48.061Z,10.55
2022-10-17T08:59:22.883Z,12.85
2022-10-17T09:01:58.750Z,5.35
2022-10-17T09:04:48.314Z,10.63
2022-10-17T09:07:31.053Z,13.00
2022-10-17T09:10:12.357Z,5.72
2022-10-17T09:12:51.737Z,5.25
2022-10-17T09:15:40.385Z,6.60
2022-10-17T09:18:18.744Z,6.97
2022-10-17T09:20:58.162Z,11.73
2022-10-17T09:23:31.477Z,9.05
2022-10-17T09:29:17.980Z,10.57
2022-10-17T09:34:32.073Z,5.65
2022-10-17T09:37:07.952Z,4.95
2022-10-17T09:39:39.266Z,7.53
2022-10-17T09:42:22.037Z,10.65
2022-10-17T09:45:16.929Z,4.57
2022-10-17T09:47:52.832Z,6.82
2022-10-17T09:50:28.195Z,8.88
2022-10-17T09:53:08.556Z,13.77
2022-10-17T09:55:42.805Z,8.30
2022-10-17T09:58:14.801Z,8.68
2022-10-17T10:00:46.808Z,7.53
2022-10-17T11:29:38.317Z,8.82
2022-10-17T12:16:28.748Z,6.03
2022-10-17T12:41:01.835Z,6.03
2022-10-17T13:29:29.215Z,6.85
2022-10-17T17:03:14.984Z,12.40
2022-10-17T17:10:46.506Z,7.32
2022-10-17T20:03:20.699Z,14.20
2022-10-17T20:10:57.515Z,12.95
2022-10-17T20:22:31.644Z,17.05
2022-10-17T20:30:07.027Z,19.85
2022-10-17T20:42:14.372Z,21.70
2022-10-17T20:57:16.652Z,19.45
2022-10-17T21:00:27.863Z,16.67
2022-10-17T21:11:18.811Z,22.35
2022-10-17T21:15:02.518Z,16.80
2022-10-17T21:22:24.894Z,16.58
2022-10-17T21:45:33.827Z,19.88
2022-10-17T21:49:04.000Z,18.45
2022-10-17T21:52:27.689Z,21.10
2022-10-17T21:57:06.527Z,21.23
2022-10-17T22:08:20.749Z,23.50
2022-10-17T23:23:27.360Z,25.20
2022-10-17T23:26:34.867Z,20.80
2022-10-17T23:30:20.291Z,23.35
